Time;durP1;ratioP1;P1;durP2;ratioP2;P2;SDS_P1;SDS_P2;PMS_P1;PMS_P2;Temp;Humidity;BMP_temperature;BMP_pressure;BME280_temperature;BME280_humidity;BME280_pressure;Samples;Min_cycle;Max_cycle;Signal;HPM_P1;HPM_P2
2021/07/01 00:08:40;;;;;;;22.87;17.27;;;;;;;16.47;76.57;100981.09;1225045;22;21657;-89
2021/07/01 06:27:26;;;;;;;4.70;4.20;;;;;;;16.78;74.48;100947.41;3651634;22;20268;-79
2021/07/01 06:29:52;;;;;;;2.63;2.43;;;;;;;16.62;75.67;100948.31;3606592;39;20228;-78
2021/07/01 06:32:17;;;;;;;5.10;4.20;;;;;;;16.76;75.18;100936.19;3612823;39;20239;-78
2021/07/01 06:34:43;;;;;;;4.97;3.60;;;;;;;16.94;74.57;100935.25;3592018;39;20490;-77
2021/07/01 06:38:22;;;;;;;4.45;4.05;;;;;;;16.84;74.54;100938.72;3588577;39;20913;-77
2021/07/01 06:40:49;;;;;;;4.37;3.70;;;;;;;16.78;75.62;100941.34;3575953;40;20249;-78
2021/07/01 06:43:17;;;;;;;5.73;3.60;;;;;;;16.82;75.65;100940.47;3577428;40;20266;-77
2021/07/01 06:45:43;;;;;;;3.40;2.93;;;;;;;16.79;74.66;100948.25;3578170;40;20222;-76
2021/07/01 06:48:10;;;;;;;3.40;3.10;;;;;;;16.62;74.83;100947.47;3576153;40;20218;-77
2021/07/01 06:50:36;;;;;;;3.63;3.33;;;;;;;16.57;75.86;100950.06;3576526;40;20225;-77
2021/07/01 06:53:02;;;;;;;3.37;3.07;;;;;;;16.48;75.76;100947.50;3581630;40;20244;-80
2021/07/01 06:55:28;;;;;;;4.57;3.90;;;;;;;16.72;75.10;100949.16;3576396;40;20257;-78
2021/07/01 06:57:56;;;;;;;5.13;4.70;;;;;;;16.68;75.64;100944.84;3576623;40;20222;-79
2021/07/01 07:00:23;;;;;;;5.97;4.23;;;;;;;16.62;75.33;100940.56;3576101;40;20327;-78
2021/07/01 07:02:50;;;;;;;5.53;4.90;;;;;;;16.53;75.72;100948.34;3575801;40;20323;-78
2021/07/01 07:05:17;;;;;;;5.80;4.97;;;;;;;16.54;76.56;100947.47;3576495;40;20226;-77
2021/07/01 07:07:45;;;;;;;4.47;4.07;;;;;;;16.83;75.86;100942.19;3575423;40;20242;-79
2021/07/01 07:10:12;;;;;;;7.47;4.90;;;;;;;16.94;74.58;100953.38;3582799;40;20255;-77
2021/07/01 07:12:42;;;;;;;4.80;4.40;;;;;;;16.92;74.70;100949.91;3583613;39;20245;-76
2021/07/01 07:15:11;;;;;;;4.70;4.20;;;;;;;16.96;75.00;100952.50;3582742;40;20524;-79
2021/07/01 07:17:38;;;;;;;3.83;3.53;;;;;;;16.96;75.09;100956.81;3586073;40;20624;-77
2021/07/01 07:20:05;;;;;;;4.20;3.80;;;;;;;17.02;75.25;100959.34;3578419;40;20657;-80
2021/07/01 07:22:36;;;;;;;5.03;4.40;;;;;;;16.93;75.70;100962.84;3575637;40;20237;-78
2021/07/01 07:25:07;;;;;;;3.80;3.50;;;;;;;16.98;74.95;100958.50;3576701;40;20614;-77
2021/07/01 07:27:33;;;;;;;4.10;3.63;;;;;;;16.94;74.98;100959.38;3576788;40;20234;-77
2021/07/01 07:30:00;;;;;;;3.93;3.43;;;;;;;17.09;74.97;100955.88;3566173;40;20238;-80
2021/07/01 07:32:28;;;;;;;5.47;3.60;;;;;;;17.17;75.12;100960.13;3575964;40;20237;-77
2021/07/01 07:34:53;;;;;;;3.90;3.50;;;;;;;17.29;74.84;100959.19;3579040;40;20246;-79
2021/07/01 07:37:19;;;;;;;3.90;3.60;;;;;;;17.45;73.74;100958.28;3576023;40;20237;-78
2021/07/01 07:39:46;;;;;;;4.60;3.90;;;;;;;17.36;74.08;100961.75;3584265;40;20245;-77
2021/07/01 07:42:12;;;;;;;4.70;4.03;;;;;;;17.34;73.73;100952.25;3578830;40;20237;-77
2021/07/01 07:44:39;;;;;;;4.70;4.30;;;;;;;17.45;73.54;100961.72;3581692;40;20275;-77
2021/07/01 07:47:14;;;;;;;4.40;4.00;;;;;;;17.50;74.11;100961.69;3579793;40;20221;-80
2021/07/01 07:49:41;;;;;;;4.82;4.32;;;;;;;17.63;73.47;100961.59;3575440;40;20511;-77
2021/07/01 07:52:09;;;;;;;5.00;4.60;;;;;;;17.55;73.83;100962.53;3577075;40;20486;-77
2021/07/01 07:54:45;;;;;;;5.50;5.00;;;;;;;17.53;74.12;100961.66;3574330;40;20221;-77
2021/07/01 07:57:11;;;;;;;5.27;4.87;;;;;;;17.54;73.78;100966.84;3569766;40;20233;-77
2021/07/01 07:59:38;;;;;;;6.23;5.73;;;;;;;17.41;73.75;100961.75;3569140;40;20230;-79
2021/07/01 08:02:06;;;;;;;5.73;5.23;;;;;;;17.33;74.47;100963.50;3569647;40;20226;-79
2021/07/01 08:04:34;;;;;;;5.33;4.93;;;;;;;17.39;74.39;100959.19;3569517;40;20230;-80
2021/07/01 08:07:02;;;;;;;5.93;5.43;;;;;;;17.32;74.99;100964.38;3569333;40;20253;-77
2021/07/01 08:09:29;;;;;;;7.77;7.17;;;;;;;17.17;74.82;100956.69;3568376;40;20238;-79
2021/07/01 08:12:06;;;;;;;;;;;;;;;;;;;;;
2021/07/01 08:14:32;;;;;;;8.10;7.30;;;;;;;17.19;75.79;100970.47;3571366;40;20225;-78
2021/07/01 08:16:58;;;;;;;7.63;7.03;;;;;;;17.19;76.02;100967.91;3579296;40;20608;-79
2021/07/01 08:19:24;;;;;;;9.23;8.43;;;;;;;17.38;75.49;100967.78;3578794;40;20230;-77
2021/07/01 08:21:49;;;;;;;9.53;8.73;;;;;;;17.35;75.45;100966.91;3577672;40;20233;-77
2021/07/01 08:24:15;;;;;;;9.90;9.10;;;;;;;17.37;75.05;100967.78;3576035;40;20222;-81
2021/07/01 08:26:56;;;;;;;8.80;8.00;;;;;;;17.41;75.11;100960.00;3568121;40;20223;-78
2021/07/01 08:29:22;;;;;;;7.97;7.37;;;;;;;17.48;75.04;100968.59;3575163;40;20580;-78
2021/07/01 08:31:49;;;;;;;8.73;8.03;;;;;;;17.49;75.32;100967.72;3561838;40;20242;-78
2021/07/01 08:34:19;;;;;;;10.30;8.67;;;;;;;17.57;75.45;100969.41;3568051;40;20278;-78
2021/07/01 08:36:46;;;;;;;7.63;6.93;;;;;;;17.67;75.57;100970.19;3569888;40;20604;-81
2021/07/01 08:39:12;;;;;;;9.00;8.30;;;;;;;17.82;73.66;100970.94;3578521;40;20233;-77
2021/07/01 08:41:42;;;;;;;8.97;8.27;;;;;;;17.94;73.37;100967.38;3579162;40;20245;-77
2021/07/01 08:44:14;;;;;;;9.40;8.50;;;;;;;17.99;73.44;100979.44;3577098;40;20234;-80
2021/07/01 08:46:57;;;;;;;11.23;10.20;;;;;;;17.84;74.52;100973.53;3576853;40;20300;-78
2021/07/01 08:49:46;;;;;;;10.63;9.63;;;;;;;17.89;74.43;100972.63;3579137;40;20245;-78
2021/07/01 08:52:13;;;;;;;11.60;10.60;;;;;;;18.02;74.76;100975.97;3574718;40;20227;-79
2021/07/01 08:54:43;;;;;;;8.27;7.57;;;;;;;18.18;73.62;100973.22;3575490;40;20233;-78
2021/07/01 08:57:13;;;;;;;9.30;8.40;;;;;;;18.10;73.74;100975.00;3572668;40;20513;-79
2021/07/01 08:59:53;;;;;;;9.60;8.80;;;;;;;18.23;73.00;100978.38;3568293;40;20266;-79
2021/07/01 09:02:22;;;;;;;10.40;9.50;;;;;;;18.32;73.27;100973.94;3569001;40;20241;-80
2021/07/01 09:04:50;;;;;;;9.20;8.50;;;;;;;18.57;72.78;100978.03;3569520;40;20222;-78
2021/07/01 09:07:21;;;;;;;9.40;8.53;;;;;;;18.32;72.96;100970.47;3569447;40;20250;-77
2021/07/01 09:09:53;;;;;;;9.90;9.10;;;;;;;18.45;72.60;100979.88;3569109;40;20246;-79
2021/07/01 09:12:23;;;;;;;7.93;7.33;;;;;;;18.32;73.21;100973.94;3569385;40;20738;-77
2021/07/01 09:14:55;;;;;;;9.17;8.43;;;;;;;18.53;72.51;100975.50;3569505;40;20226;-78
2021/07/01 09:17:22;;;;;;;10.23;9.43;;;;;;;18.50;72.56;100986.75;3569001;40;20242;-79
2021/07/01 09:19:48;;;;;;;11.80;10.90;;;;;;;18.45;72.76;100980.75;3568986;40;20242;-77
2021/07/01 09:22:16;;;;;;;11.77;10.73;;;;;;;18.42;72.96;100982.53;3569924;40;20585;-78
2021/07/01 09:24:47;;;;;;;11.73;10.63;;;;;;;18.47;73.05;100975.56;3569409;40;20262;-77
2021/07/01 09:27:13;;;;;;;10.30;9.50;;;;;;;18.64;72.88;100981.41;3568807;40;20227;-78
2021/07/01 09:29:44;;;;;;;10.90;9.93;;;;;;;18.46;72.41;100987.66;3569918;40;20540;-78
2021/07/01 09:32:11;;;;;;;11.33;10.23;;;;;;;18.48;72.57;100985.06;3551086;40;20520;-78
2021/07/01 09:34:37;;;;;;;12.20;11.10;;;;;;;18.50;73.58;100986.75;3569717;40;20240;-77
2021/07/01 09:37:03;;;;;;;11.20;10.30;;;;;;;18.58;73.02;100986.66;3569392;40;20537;-80
2021/07/01 09:39:31;;;;;;;11.60;10.70;;;;;;;18.61;73.12;100990.09;3578251;40;20233;-78
2021/07/01 09:42:01;;;;;;;11.67;10.67;;;;;;;18.53;73.70;100985.88;3579130;40;20237;-77
2021/07/01 09:44:28;;;;;;;9.63;8.83;;;;;;;18.66;73.48;100985.69;3579268;40;20226;-77
2021/07/01 09:46:56;;;;;;;11.30;10.40;;;;;;;18.47;74.23;100989.38;3576693;40;20244;-79
2021/07/01 09:49:44;;;;;;;8.73;7.93;;;;;;;18.69;73.93;100985.69;3569829;40;20304;-77
2021/07/01 09:52:12;;;;;;;10.30;9.47;;;;;;;18.73;73.47;100986.50;3577586;40;20218;-80
2021/07/01 09:54:39;;;;;;;10.07;9.20;;;;;;;18.81;72.92;100988.16;3579661;40;20218;-77
2021/07/01 09:57:13;;;;;;;10.63;9.77;;;;;;;18.72;73.33;100995.16;3579060;40;20315;-78
2021/07/01 09:59:47;;;;;;;9.97;9.13;;;;;;;18.99;73.04;100989.66;3578542;40;20278;-78
2021/07/01 10:02:17;;;;;;;10.77;9.97;;;;;;;18.83;73.47;100985.53;3576785;40;20238;-78
2021/07/01 10:04:46;;;;;;;8.80;8.10;;;;;;;18.92;73.89;100991.47;3568830;40;20243;-78
2021/07/01 10:07:13;;;;;;;9.83;9.03;;;;;;;18.94;74.33;100996.63;3572814;40;20306;-77
2021/07/01 10:09:38;;;;;;;10.60;9.80;;;;;;;18.89;74.46;100988.03;3578848;40;20261;-77
2021/07/01 10:12:20;;;;;;;11.23;10.23;;;;;;;18.85;74.64;100992.44;3579159;40;20705;-80
2021/07/01 10:14:46;;;;;;;9.60;8.80;;;;;;;19.04;74.01;100993.91;3577584;40;20326;-78
2021/07/01 10:17:14;;;;;;;11.40;10.30;;;;;;;18.78;74.82;100995.94;3574991;40;20316;-78
2021/07/01 10:19:39;;;;;;;10.90;10.00;;;;;;;18.87;74.49;100998.44;3576723;40;20246;-80
2021/07/01 10:22:07;;;;;;;9.97;9.17;;;;;;;18.71;75.51;100998.63;3571596;40;20228;-79
2021/07/01 10:24:35;;;;;;;10.80;9.70;;;;;;;18.75;76.02;100995.13;3573148;40;20246;-78
2021/07/01 10:27:02;;;;;;;10.00;9.10;;;;;;;18.86;75.32;100998.44;3575921;40;20226;-78
2021/07/01 10:29:38;;;;;;;10.13;9.33;;;;;;;19.01;75.46;100999.13;3577815;40;20782;-77
2021/07/01 10:32:06;;;;;;;10.07;9.27;;;;;;;19.17;74.35;101002.41;3579148;40;20241;-78
2021/07/01 10:34:48;;;;;;;8.80;8.10;;;;;;;19.22;73.94;101004.09;3578386;40;20612;-78
2021/07/01 10:37:22;;;;;;;10.23;9.30;;;;;;;19.16;75.04;101001.53;3577955;40;20248;-77
2021/07/01 10:39:50;;;;;;;9.53;8.63;;;;;;;19.35;73.58;101000.44;3573838;40;20261;-77
2021/07/01 10:42:20;;;;;;;9.37;8.47;;;;;;;19.27;74.33;101004.03;3576148;40;20608;-76
2021/07/01 10:44:46;;;;;;;9.20;8.40;;;;;;;19.20;74.33;100999.78;3580579;40;20221;-79
2021/07/01 10:47:32;;;;;;;9.63;8.60;;;;;;;19.13;74.49;101006.78;3573644;40;20238;-79
2021/07/01 10:49:59;;;;;;;9.10;8.40;;;;;;;19.25;74.79;101003.19;3568228;40;20316;-76
2021/07/01 10:52:42;;;;;;;9.70;8.80;;;;;;;19.23;75.34;101008.41;3568330;40;20223;-76
2021/07/01 10:55:08;;;;;;;10.07;9.07;;;;;;;19.34;74.67;101003.06;3568404;40;20229;-78
2021/07/01 10:57:34;;;;;;;9.90;9.07;;;;;;;19.36;75.10;101003.91;3568314;40;20270;-77
2021/07/01 11:00:01;;;;;;;10.77;9.73;;;;;;;19.35;75.09;101004.78;3567400;40;20253;-79
2021/07/01 11:02:29;;;;;;;9.60;8.70;;;;;;;19.37;74.93;101003.88;3570640;40;20215;-78
2021/07/01 11:04:57;;;;;;;9.87;8.97;;;;;;;19.25;74.95;101006.63;3575078;40;20248;-78
2021/07/01 11:07:22;;;;;;;9.87;9.07;;;;;;;19.46;74.15;101002.88;3572146;40;20231;-78
2021/07/01 11:09:52;;;;;;;11.10;10.07;;;;;;;19.24;75.40;100999.72;3567862;40;20279;-79
2021/07/01 11:12:20;;;;;;;10.23;9.33;;;;;;;19.27;75.03;101001.44;3567492;40;20236;-77
2021/07/01 11:14:47;;;;;;;10.47;9.57;;;;;;;19.28;74.69;101005.72;3568697;40;20234;-78
2021/07/01 11:17:12;;;;;;;11.87;10.77;;;;;;;18.99;75.38;101013.00;3568928;40;20251;-79
2021/07/01 11:19:40;;;;;;;10.90;9.90;;;;;;;19.13;75.46;101008.50;3570915;40;20222;-78
2021/07/01 11:22:07;;;;;;;11.87;10.87;;;;;;;18.89;76.19;101012.25;3578402;40;20218;-78
2021/07/01 11:24:32;;;;;;;10.67;9.77;;;;;;;18.95;75.90;101004.41;3578544;40;20262;-79
2021/07/01 11:27:01;;;;;;;13.23;12.03;;;;;;;18.92;76.31;101016.53;3579362;40;20682;-78
2021/07/01 11:29:43;;;;;;;13.43;12.23;;;;;;;18.87;76.71;101016.63;3579345;40;20225;-78
2021/07/01 11:32:20;;;;;;;14.87;13.53;;;;;;;18.84;76.83;101019.22;3579819;40;20228;-78
2021/07/01 11:34:48;;;;;;;11.37;10.37;;;;;;;19.00;76.70;101025.09;3580006;40;20291;-78
2021/07/01 11:37:15;;;;;;;11.63;10.67;;;;;;;19.23;76.18;101024.00;3580304;40;20334;-77
2021/07/01 11:39:41;;;;;;;13.43;12.07;;;;;;;19.52;75.68;101021.84;3579723;40;20330;-78
2021/07/01 11:42:07;;;;;;;11.43;10.33;;;;;;;19.63;74.27;101022.53;3579418;40;20233;-78
2021/07/01 11:44:33;;;;;;;12.33;11.33;;;;;;;19.91;74.09;101021.28;3579454;40;20262;-80
2021/07/01 11:47:01;;;;;;;11.47;10.40;;;;;;;20.22;72.62;101027.69;3580416;40;20228;-77
2021/07/01 11:49:30;;;;;;;10.55;9.63;;;;;;;20.40;71.71;101029.16;3579654;40;20245;-80
2021/07/01 11:51:56;;;;;;;9.07;8.27;;;;;;;20.70;71.01;101024.25;3579532;40;20237;-77
2021/07/01 11:54:22;;;;;;;9.07;8.33;;;;;;;20.94;69.67;101035.94;3580244;40;20222;-79
2021/07/01 11:56:54;;;;;;;9.97;9.07;;;;;;;21.05;69.19;101034.84;3575112;40;20605;-78
2021/07/01 11:59:21;;;;;;;9.23;8.33;;;;;;;21.35;68.46;101028.13;3570188;40;20261;-79
2021/07/01 12:01:46;;;;;;;8.17;7.37;;;;;;;21.81;66.83;101026.25;3570193;40;20282;-78
2021/07/01 12:04:16;;;;;;;7.57;6.87;;;;;;;22.06;64.19;101022.19;3570181;40;20316;-81
2021/07/01 12:06:53;;;;;;;6.53;6.03;;;;;;;22.37;64.86;101028.31;3569275;40;20219;-79
2021/07/01 12:09:19;;;;;;;6.38;5.78;;;;;;;22.50;63.61;101032.38;3569293;40;20316;-76
2021/07/01 12:12:09;;;;;;;6.03;5.53;;;;;;;23.11;62.96;101023.72;3570744;40;20230;-79
2021/07/01 12:14:36;;;;;;;5.80;5.30;;;;;;;23.36;62.21;101020.38;3570856;40;20229;-80
2021/07/01 12:17:02;;;;;;;6.85;5.35;;;;;;;22.78;61.52;101022.88;3575733;40;20589;-77
2021/07/01 12:19:45;;;;;;;6.90;5.40;;;;;;;22.69;62.13;101024.91;3571263;40;20315;-79
2021/07/01 12:22:42;;;;;;;5.55;5.00;;;;;;;22.91;61.17;101020.78;3570722;40;20527;-79
2021/07/01 12:25:31;;;;;;;5.10;4.70;;;;;;;23.28;60.70;101019.72;3570613;40;20537;-80
2021/07/01 12:28:12;;;;;;;4.75;4.35;;;;;;;23.59;60.53;101030.97;3569954;40;20238;-78
2021/07/01 12:31:00;;;;;;;4.93;3.65;;;;;;;23.66;57.50;101029.88;3570881;40;20532;-79
2021/07/01 12:33:29;;;;;;;3.90;3.60;;;;;;;23.81;58.51;101032.00;3572220;40;20261;-80
2021/07/01 12:36:09;;;;;;;3.90;3.60;;;;;;;23.98;57.66;101027.13;3566011;40;20637;-80
2021/07/01 12:38:36;;;;;;;5.67;3.90;;;;;;;23.77;58.57;101037.41;3575844;40;20623;-77
2021/07/01 12:41:07;;;;;;;4.03;3.67;;;;;;;23.81;58.95;101029.38;3573730;40;20587;-79
2021/07/01 12:43:42;;;;;;;4.47;4.07;;;;;;;23.68;57.37;101028.09;3581563;40;20253;-79
2021/07/01 12:46:11;;;;;;;3.80;3.50;;;;;;;23.68;58.24;101033.31;3573884;40;20244;-82
2021/07/01 12:48:39;;;;;;;4.07;3.67;;;;;;;23.69;58.07;101040.25;3576997;40;20238;-79
2021/07/01 12:51:43;;;;;;;4.22;3.83;;;;;;;23.15;59.46;101035.78;3580070;40;20278;-80
2021/07/01 12:54:24;;;;;;;4.40;3.95;;;;;;;23.22;58.92;101034.72;3581160;40;20225;-77
2021/07/01 12:56:51;;;;;;;4.90;3.67;;;;;;;23.02;60.14;101030.03;3572406;40;20242;-81
2021/07/01 12:59:20;;;;;;;5.15;4.68;;;;;;;22.84;61.72;101033.16;3574502;40;20234;-79
2021/07/01 13:01:45;;;;;;;4.90;4.40;;;;;;;22.68;61.29;101039.72;3575336;40;20234;-81
2021/07/01 13:04:11;;;;;;;5.60;3.95;;;;;;;22.81;60.93;101043.72;3570269;40;20238;-79
2021/07/01 13:06:42;;;;;;;6.88;4.68;;;;;;;22.66;60.53;101043.25;3578714;40;20238;-78
2021/07/01 13:09:08;;;;;;;4.88;4.32;;;;;;;22.74;61.43;101044.75;3580307;40;20218;-80
2021/07/01 13:11:44;;;;;;;5.20;4.70;;;;;;;22.82;61.90;101040.19;3579827;40;20249;-79
2021/07/01 13:14:16;;;;;;;4.80;4.32;;;;;;;22.63;61.32;101049.44;3580978;40;20229;-78
2021/07/01 13:16:41;;;;;;;5.90;5.40;;;;;;;22.38;63.65;101050.06;3580577;40;20270;-80
2021/07/01 13:19:22;;;;;;;5.45;4.97;;;;;;;22.76;61.73;101049.94;3580659;40;20505;-79
2021/07/01 13:21:54;;;;;;;4.80;4.20;;;;;;;22.61;62.06;101053.81;3579991;40;20256;-79
2021/07/01 13:24:20;;;;;;;6.60;4.95;;;;;;;22.52;62.81;101050.59;3580135;40;20232;-78
2021/07/01 13:26:47;;;;;;;7.22;5.60;;;;;;;22.15;64.18;101050.63;3579180;40;20237;-78
2021/07/01 13:29:12;;;;;;;5.93;5.43;;;;;;;21.91;65.06;101046.00;3572112;40;20222;-81
2021/07/01 13:31:38;;;;;;;6.70;6.10;;;;;;;21.83;66.43;101051.41;3570061;40;20254;-78
2021/07/01 13:34:06;;;;;;;6.10;5.57;;;;;;;21.72;66.89;101055.16;3567500;40;20238;-78
2021/07/01 13:36:32;;;;;;;6.07;5.50;;;;;;;21.78;66.68;101055.88;3562828;40;20246;-79
2021/07/01 13:38:57;;;;;;;8.13;6.82;;;;;;;21.61;67.12;101055.34;3573519;40;20245;-80
2021/07/01 13:41:27;;;;;;;6.70;6.07;;;;;;;21.64;66.41;101062.25;3569965;40;20723;-79
2021/07/01 13:43:52;;;;;;;7.77;7.03;;;;;;;21.32;68.44;101073.38;3570361;40;20221;-77
2021/07/01 13:46:20;;;;;;;8.07;7.23;;;;;;;21.18;68.59;101075.38;3576878;40;20221;-79
2021/07/01 13:48:45;;;;;;;7.10;6.50;;;;;;;21.14;68.88;101065.06;3574114;40;20214;-80
2021/07/01 13:51:10;;;;;;;8.97;8.03;;;;;;;20.91;70.90;101068.13;3578182;40;20246;-78
2021/07/01 13:53:37;;;;;;;8.73;7.83;;;;;;;20.86;70.60;101067.31;3571572;40;20268;-77
2021/07/01 13:56:04;;;;;;;7.63;6.93;;;;;;;21.26;69.29;101072.63;3578082;40;20240;-78
2021/07/01 13:58:32;;;;;;;7.57;6.87;;;;;;;21.27;69.50;101070.00;3579569;40;20221;-78
2021/07/01 14:01:00;;;;;;;7.27;6.60;;;;;;;21.37;69.69;101081.09;3575028;40;20234;-77
2021/07/01 14:03:27;;;;;;;7.17;6.63;;;;;;;21.74;68.65;101069.84;3578852;40;20257;-77
2021/07/01 14:05:58;;;;;;;7.80;6.95;;;;;;;21.54;69.57;101069.41;3579443;40;20638;-80
2021/07/01 14:08:48;;;;;;;9.87;9.03;;;;;;;21.22;71.31;101073.56;3577203;40;20230;-81
2021/07/01 14:11:14;;;;;;;10.60;9.60;;;;;;;21.18;70.33;101078.00;3568299;40;20490;-78
2021/07/01 14:13:43;;;;;;;8.50;7.70;;;;;;;21.01;70.79;101079.22;3568114;40;20237;-79
2021/07/01 14:16:11;;;;;;;7.57;6.37;;;;;;;20.97;70.09;101082.78;3578208;40;20706;-78
2021/07/01 14:18:39;;;;;;;9.03;7.27;;;;;;;20.66;69.58;101094.59;3574593;40;20335;-78
2021/07/01 14:21:05;;;;;;;11.03;9.77;;;;;;;20.48;71.02;101093.19;3572232;40;20238;-80
2021/07/01 14:23:32;;;;;;;7.90;7.10;;;;;;;20.51;71.44;101092.25;3573034;40;20349;-78
2021/07/01 14:26:10;;;;;;;8.23;7.43;;;;;;;20.39;72.24;101095.06;3573844;40;20592;-78
2021/07/01 14:28:35;;;;;;;9.13;8.23;;;;;;;20.37;72.06;101091.63;3573731;40;20269;-77
2021/07/01 14:31:09;;;;;;;8.17;6.50;;;;;;;20.41;72.08;101088.94;3573832;40;20652;-81
2021/07/01 14:33:46;;;;;;;6.83;6.07;;;;;;;20.34;72.01;101089.06;3571028;40;20214;-79
2021/07/01 14:36:13;;;;;;;8.33;7.53;;;;;;;20.40;71.53;101089.84;3568906;40;20245;-78
2021/07/01 14:39:03;;;;;;;7.80;7.07;;;;;;;20.39;71.83;101095.06;3570096;40;20292;-77
2021/07/01 14:41:37;;;;;;;7.93;7.13;;;;;;;20.49;71.64;101100.09;3569851;40;20257;-77
2021/07/01 14:44:22;;;;;;;7.33;6.63;;;;;;;20.42;72.52;101097.63;3569693;40;20241;-76
2021/07/01 14:46:49;;;;;;;10.27;9.37;;;;;;;20.12;73.41;101103.28;3569691;40;20234;-76
2021/07/01 14:49:29;;;;;;;9.90;9.07;;;;;;;20.20;72.68;101110.13;3570278;40;20226;-80
2021/07/01 14:51:57;;;;;;;9.90;8.90;;;;;;;20.24;72.93;101108.31;3573018;40;20619;-76
2021/07/01 14:54:28;;;;;;;10.77;9.77;;;;;;;20.23;73.38;101111.81;3572109;40;20604;-77
2021/07/01 14:57:02;;;;;;;10.70;9.70;;;;;;;20.23;73.22;101112.66;3569463;40;20641;-76
2021/07/01 15:00:03;;;;;;;11.57;10.53;;;;;;;20.18;73.32;101118.84;3570760;40;20777;-76
2021/07/01 15:02:33;;;;;;;11.90;10.80;;;;;;;20.16;73.58;101128.38;3570355;40;20244;-77
2021/07/01 15:05:09;;;;;;;14.07;12.77;;;;;;;19.97;75.73;101126.91;3570621;40;20234;-76
2021/07/01 15:07:42;;;;;;;15.03;13.70;;;;;;;19.84;76.26;101135.75;3580820;40;20538;-78
2021/07/01 15:10:10;;;;;;;14.47;12.97;;;;;;;19.87;75.93;101139.19;3580483;40;20254;-76
2021/07/01 15:12:36;;;;;;;12.27;11.17;;;;;;;19.88;75.32;101135.69;3579351;40;20236;-80
2021/07/01 15:15:02;;;;;;;12.03;11.03;;;;;;;19.87;75.24;101133.13;3580551;40;20225;-76
2021/07/01 15:17:33;;;;;;;16.97;15.23;;;;;;;19.91;75.83;101135.66;3579382;40;20234;-78
2021/07/01 15:19:59;;;;;;;16.97;15.33;;;;;;;19.89;75.46;101133.94;3580038;40;20331;-77
2021/07/01 15:22:25;;;;;;;17.63;16.13;;;;;;;19.93;75.42;101138.22;3580366;40;20222;-77
2021/07/01 15:24:52;;;;;;;17.07;15.47;;;;;;;19.89;76.00;101146.94;3578769;40;20311;-78
2021/07/01 15:27:18;;;;;;;14.17;12.97;;;;;;;19.86;75.81;101144.41;3580126;40;20233;-77
2021/07/01 15:29:44;;;;;;;11.80;10.80;;;;;;;19.84;76.06;101152.22;3580085;40;20245;-75
2021/07/01 15:32:10;;;;;;;18.17;16.43;;;;;;;19.83;75.92;101155.69;3580346;40;20606;-78
2021/07/01 15:34:35;;;;;;;13.43;12.23;;;;;;;19.97;75.88;101152.91;3579569;40;20614;-79
2021/07/01 15:37:00;;;;;;;14.03;12.83;;;;;;;20.24;74.91;101155.16;3580065;40;20237;-76
2021/07/01 15:39:26;;;;;;;9.53;8.57;;;;;;;20.39;73.93;101150.56;3578024;40;20232;-77
2021/07/01 15:41:51;;;;;;;8.07;7.23;;;;;;;20.41;73.42;101142.75;3580828;40;20226;-80
2021/07/01 15:44:17;;;;;;;10.43;9.37;;;;;;;20.24;73.62;101145.63;3583479;40;20240;-81
2021/07/01 15:46:44;;;;;;;9.97;9.03;;;;;;;20.22;74.16;101151.72;3581016;40;20249;-76
2021/07/01 15:49:10;;;;;;;8.90;8.10;;;;;;;20.35;73.42;101151.50;3580352;40;20225;-78
2021/07/01 15:51:35;;;;;;;10.50;9.40;;;;;;;20.45;72.60;101150.47;3571400;40;20251;-77
2021/07/01 15:54:00;;;;;;;9.50;8.63;;;;;;;20.50;72.51;101153.00;3571228;40;20570;-77
2021/07/01 15:56:26;;;;;;;9.70;8.70;;;;;;;20.37;72.57;101160.16;3571284;40;20226;-77
2021/07/01 15:58:52;;;;;;;8.20;7.50;;;;;;;20.30;73.74;101160.25;3577192;40;20226;-77
2021/07/01 16:01:23;;;;;;;7.00;6.30;;;;;;;20.46;73.37;101162.59;3582489;40;20246;-79
2021/07/01 16:03:51;;;;;;;8.32;7.53;;;;;;;20.40;73.74;101172.25;3581147;40;20216;-77
2021/07/01 16:06:19;;;;;;;9.00;7.83;;;;;;;20.56;72.85;101168.53;3581331;40;20226;-77
2021/07/01 16:08:49;;;;;;;7.77;7.07;;;;;;;20.55;73.36;101172.00;3581045;40;20202;-77
2021/07/01 16:11:14;;;;;;;7.93;7.13;;;;;;;20.83;71.63;101166.31;3581120;40;20237;-76
2021/07/01 16:13:42;;;;;;;7.50;6.87;;;;;;;20.55;72.25;101174.63;3581458;40;20241;-77
2021/07/01 16:16:08;;;;;;;9.37;8.47;;;;;;;20.31;73.15;101170.63;3581812;40;20608;-77
2021/07/01 16:18:33;;;;;;;9.43;8.63;;;;;;;20.31;73.09;101170.63;3581291;40;20303;-79
2021/07/01 16:21:03;;;;;;;7.10;6.50;;;;;;;20.60;71.06;101176.22;3581343;40;20246;-80
2021/07/01 16:23:29;;;;;;;6.68;6.07;;;;;;;20.55;71.08;101170.25;3580358;40;20222;-79
2021/07/01 16:25:55;;;;;;;7.13;6.53;;;;;;;20.49;71.54;101177.31;3580793;40;20311;-78
2021/07/01 16:28:21;;;;;;;7.10;6.40;;;;;;;20.46;71.58;101166.94;3580611;40;20312;-77
2021/07/01 16:30:47;;;;;;;7.53;6.87;;;;;;;20.52;71.19;101169.44;3579527;40;20238;-77
2021/07/01 16:33:12;;;;;;;7.47;6.78;;;;;;;20.58;71.83;101170.22;3578134;40;20225;-77
2021/07/01 16:35:38;;;;;;;7.67;6.83;;;;;;;20.55;71.54;101169.41;3581304;40;20592;-79
2021/07/01 16:38:03;;;;;;;7.13;6.53;;;;;;;20.82;70.26;101164.59;3580542;40;20496;-79
2021/07/01 16:40:29;;;;;;;6.60;6.00;;;;;;;20.69;70.79;101168.28;3579407;40;20245;-77
2021/07/01 16:42:54;;;;;;;4.73;4.33;;;;;;;20.71;70.98;101171.72;3568978;40;20230;-77
2021/07/01 16:45:19;;;;;;;3.73;3.43;;;;;;;20.67;69.15;101170.06;3570899;40;20214;-79
2021/07/01 16:47:49;;;;;;;3.87;3.27;;;;;;;20.83;69.77;101168.91;3573030;40;20225;-79
2021/07/01 16:50:16;;;;;;;4.53;3.03;;;;;;;20.75;68.99;101155.19;3568275;40;20238;-76
2021/07/01 16:52:43;;;;;;;5.20;3.80;;;;;;;20.65;68.67;101155.34;3578794;40;20210;-77
2021/07/01 16:55:09;;;;;;;4.87;3.87;;;;;;;20.62;70.66;101158.00;3581397;40;20446;-75
2021/07/01 16:57:37;;;;;;;5.17;4.00;;;;;;;20.60;71.83;101160.63;3580480;40;20298;-77
2021/07/01 17:00:05;;;;;;;4.40;4.00;;;;;;;20.50;71.55;101166.88;3580227;40;20258;-76
2021/07/01 17:02:31;;;;;;;5.07;4.00;;;;;;;20.55;70.08;101164.19;3580430;40;20339;-77
2021/07/01 17:04:56;;;;;;;4.90;4.40;;;;;;;20.49;71.24;101166.91;3581023;40;20222;-77
2021/07/01 17:07:23;;;;;;;6.47;4.90;;;;;;;20.51;71.42;101168.59;3581150;40;20222;-76
2021/07/01 17:09:51;;;;;;;8.07;5.67;;;;;;;20.47;71.71;101171.25;3581282;40;20237;-81
2021/07/01 17:12:20;;;;;;;5.47;4.97;;;;;;;20.56;72.33;101168.53;3581158;40;20209;-78
2021/07/01 17:14:46;;;;;;;7.23;5.83;;;;;;;20.54;72.44;101178.09;3581217;40;20214;-76
2021/07/01 17:17:15;;;;;;;8.67;6.97;;;;;;;20.49;73.34;101185.13;3581424;40;20232;-77
2021/07/01 17:19:45;;;;;;;7.47;6.70;;;;;;;20.73;72.34;101195.16;3581183;40;20216;-77
2021/07/01 17:22:19;;;;;;;8.33;7.00;;;;;;;20.61;73.55;101196.19;3580423;40;20218;-76
2021/07/01 17:24:45;;;;;;;7.60;6.73;;;;;;;20.84;71.04;101198.41;3581326;40;20241;-77
2021/07/01 17:27:12;;;;;;;7.83;7.10;;;;;;;20.51;72.47;101194.63;3575587;40;20280;-76
2021/07/01 17:29:38;;;;;;;9.13;8.17;;;;;;;20.60;71.53;101199.66;3579431;40;21018;-76
2021/07/01 17:32:05;;;;;;;9.67;7.27;;;;;;;20.58;72.17;101205.78;3577525;40;20239;-77
2021/07/01 17:34:32;;;;;;;8.57;7.43;;;;;;;20.52;72.76;101200.69;3573508;40;20277;-77
2021/07/01 17:36:57;;;;;;;8.87;7.47;;;;;;;20.68;72.08;101197.81;3575701;40;20245;-77
2021/07/01 17:39:25;;;;;;;8.23;7.43;;;;;;;20.34;73.41;101191.41;3578691;40;20234;-76
2021/07/01 17:41:52;;;;;;;11.57;7.83;;;;;;;20.36;72.81;101200.03;3576576;40;20213;-79
2021/07/01 17:44:26;;;;;;;11.80;8.40;;;;;;;20.33;72.85;101192.31;3579204;40;20221;-78
2021/07/01 17:46:52;;;;;;;11.37;8.27;;;;;;;20.21;73.82;101197.66;3569454;40;20253;-79
2021/07/01 17:49:18;;;;;;;8.87;7.97;;;;;;;20.26;73.81;101205.44;3571003;40;20265;-80
2021/07/01 17:51:46;;;;;;;9.43;8.43;;;;;;;20.46;73.27;101206.81;3570512;40;20231;-77
2021/07/01 17:54:12;;;;;;;11.70;8.83;;;;;;;20.14;74.36;101210.78;3570129;40;20255;-78
2021/07/01 17:56:44;;;;;;;9.13;8.23;;;;;;;20.27;73.86;101207.13;3570451;40;20222;-78